createdAt,value
2017-09-21T00:01:19.890Z,81.16
2017-09-21T00:03:48.656Z,81.19
2017-09-21T00:06:17.427Z,81.19
2017-09-21T00:08:46.119Z,81.22
2017-09-21T00:11:14.923Z,81.20
2017-09-21T00:13:43.611Z,81.20
2017-09-21T00:16:12.477Z,81.31
2017-09-21T00:18:41.264Z,81.26
2017-09-21T00:21:09.993Z,81.28
2017-09-21T00:23:38.711Z,81.32
2017-09-21T00:26:07.451Z,81.34
2017-09-21T00:28:37.000Z,81.38
2017-09-21T00:31:05.736Z,81.37
2017-09-21T00:33:34.505Z,81.37
2017-09-21T00:36:03.243Z,81.39
2017-09-21T00:38:35.393Z,81.38
2017-09-21T00:41:04.162Z,81.40
2017-09-21T00:43:32.891Z,81.42
2017-09-21T00:46:01.658Z,81.44
2017-09-21T00:48:35.162Z,81.44
2017-09-21T00:51:03.957Z,81.43
2017-09-21T00:53:32.676Z,81.44
2017-09-21T00:56:01.086Z,81.45
2017-09-21T00:58:34.995Z,81.43
2017-09-21T01:01:03.787Z,81.43
2017-09-21T01:03:32.514Z,81.44
2017-09-21T01:06:01.229Z,81.45
2017-09-21T01:08:29.977Z,81.47
2017-09-21T01:10:58.718Z,81.44
2017-09-21T01:13:27.460Z,81.44
2017-09-21T01:15:56.274Z,81.44
2017-09-21T01:18:25.005Z,81.43
2017-09-21T01:20:53.432Z,81.46
2017-09-21T01:23:22.183Z,81.47
2017-09-21T01:25:52.713Z,81.41
2017-09-21T01:28:21.197Z,81.46
2017-09-21T01:30:50.030Z,81.44
2017-09-21T01:33:18.760Z,81.43
2017-09-21T01:35:47.272Z,81.45
2017-09-21T01:38:16.064Z,81.42
2017-09-21T01:40:44.462Z,81.43
2017-09-21T01:43:13.248Z,81.42
2017-09-21T01:45:41.989Z,81.40
2017-09-21T01:48:10.386Z,81.37
2017-09-21T01:50:39.000Z,81.35
2017-09-21T01:53:07.571Z,81.38
2017-09-21T01:55:35.897Z,81.43
2017-09-21T01:58:04.563Z,81.41
2017-09-21T02:00:33.764Z,81.40
2017-09-21T02:03:02.649Z,81.41
2017-09-21T02:05:31.098Z,81.40
2017-09-21T02:07:59.897Z,81.38
2017-09-21T02:10:28.746Z,81.39
2017-09-21T02:12:57.517Z,81.38
2017-09-21T02:15:26.016Z,81.36
2017-09-21T02:17:54.729Z,81.32
2017-09-21T02:20:23.166Z,81.34
2017-09-21T02:22:51.966Z,81.32
2017-09-21T02:25:20.748Z,81.34
2017-09-21T02:27:49.551Z,81.34
2017-09-21T02:30:18.311Z,81.34
2017-09-21T02:32:47.110Z,81.34
2017-09-21T02:35:15.860Z,81.33
2017-09-21T02:37:44.587Z,81.34
2017-09-21T02:40:14.302Z,81.39
2017-09-21T02:42:43.014Z,81.40
2017-09-21T02:45:11.742Z,81.37
2017-09-21T02:47:40.574Z,81.40
2017-09-21T02:50:09.224Z,81.37
2017-09-21T02:52:38.021Z,81.39
2017-09-21T02:55:11.392Z,81.42
2017-09-21T02:57:40.568Z,81.35
2017-09-21T03:00:09.291Z,81.39
2017-09-21T03:02:38.045Z,81.41
2017-09-21T03:05:06.918Z,81.39
2017-09-21T03:07:35.584Z,81.40
2017-09-21T03:10:04.313Z,81.31
2017-09-21T03:12:33.159Z,81.35
2017-09-21T03:15:01.867Z,81.41
2017-09-21T03:17:30.618Z,81.37
2017-09-21T03:19:59.327Z,81.38
2017-09-21T03:22:28.081Z,81.43
2017-09-21T03:24:56.822Z,81.41
2017-09-21T03:27:25.514Z,81.42
2017-09-21T03:29:54.359Z,81.45
2017-09-21T03:32:23.075Z,81.48
2017-09-21T03:34:51.761Z,81.42
2017-09-21T03:37:20.396Z,81.38
2017-09-21T03:39:48.965Z,81.35
2017-09-21T03:42:17.582Z,81.37
2017-09-21T03:44:46.375Z,81.43
2017-09-21T03:47:15.078Z,81.39
2017-09-21T03:49:43.840Z,81.40
2017-09-21T03:52:12.602Z,81.43
2017-09-21T03:54:41.365Z,81.38
2017-09-21T03:57:10.133Z,81.42
2017-09-21T03:59:38.929Z,81.46
2017-09-21T04:02:07.667Z,81.42
2017-09-21T04:04:36.461Z,81.43
2017-09-21T04:07:05.236Z,81.42
2017-09-21T04:09:33.858Z,81.43
2017-09-21T04:12:02.590Z,81.40
2017-09-21T04:14:31.135Z,81.46
2017-09-21T04:16:59.786Z,81.46
2017-09-21T04:19:28.381Z,81.47
2017-09-21T04:21:57.032Z,81.46
2017-09-21T04:24:25.765Z,81.48
2017-09-21T04:26:54.518Z,81.46
2017-09-21T04:29:23.069Z,81.46
2017-09-21T04:31:51.907Z,81.46
2017-09-21T04:34:21.096Z,81.46
2017-09-21T04:36:49.817Z,81.46
2017-09-21T04:39:18.797Z,81.48
2017-09-21T04:41:47.498Z,81.47
2017-09-21T04:44:16.289Z,81.47
2017-09-21T04:46:45.103Z,81.49
2017-09-21T04:49:16.053Z,81.49
2017-09-21T04:51:46.125Z,81.46
2017-09-21T04:54:14.923Z,81.50
2017-09-21T04:56:43.674Z,81.49
2017-09-21T04:59:12.497Z,81.47
2017-09-21T05:01:41.288Z,81.50
2017-09-21T05:04:12.688Z,81.50
2017-09-21T05:06:47.127Z,81.50
2017-09-21T05:09:15.824Z,81.50
2017-09-21T05:11:52.389Z,81.52
2017-09-21T05:14:21.542Z,81.53
2017-09-21T05:16:50.345Z,81.52
2017-09-21T05:19:21.545Z,81.54
2017-09-21T05:21:50.574Z,81.58
2017-09-21T05:24:19.269Z,81.60
2017-09-21T05:26:47.996Z,81.58
2017-09-21T05:29:16.836Z,81.63
2017-09-21T05:31:45.624Z,81.63
2017-09-21T05:34:14.377Z,81.64
2017-09-21T05:36:46.122Z,81.66
2017-09-21T05:39:15.172Z,81.69
2017-09-21T05:41:43.950Z,81.65
2017-09-21T05:44:13.567Z,81.72
2017-09-21T05:46:42.411Z,81.74
2017-09-21T05:49:11.173Z,81.76
2017-09-21T05:51:39.904Z,81.73
2017-09-21T05:54:08.731Z,81.82
2017-09-21T05:56:37.480Z,81.92
2017-09-21T05:59:06.282Z,81.88
2017-09-21T06:01:35.089Z,82.07
2017-09-21T06:04:03.812Z,82.16
2017-09-21T06:06:32.651Z,82.18
2017-09-21T06:09:01.477Z,82.23
2017-09-21T06:11:30.211Z,82.28
2017-09-21T06:13:58.971Z,82.26
2017-09-21T06:16:27.739Z,82.26
2017-09-21T06:18:56.481Z,82.30
2017-09-21T06:21:25.298Z,82.39
2017-09-21T06:23:54.134Z,82.34
2017-09-21T06:26:22.947Z,82.36
2017-09-21T06:28:51.661Z,82.36
2017-09-21T06:31:20.457Z,82.51
2017-09-21T06:33:49.286Z,82.58
2017-09-21T06:36:18.071Z,82.58
2017-09-21T06:38:46.834Z,82.61
2017-09-21T06:41:15.575Z,82.59
2017-09-21T06:43:44.350Z,82.52
2017-09-21T06:46:13.125Z,82.51
2017-09-21T06:48:41.881Z,82.64
2017-09-21T06:51:10.612Z,82.60
2017-09-21T06:53:39.434Z,82.54
2017-09-21T06:56:08.152Z,82.53
2017-09-21T06:58:36.945Z,82.53
2017-09-21T07:01:05.693Z,82.55
2017-09-21T07:03:34.457Z,82.62
2017-09-21T07:06:03.204Z,82.63
2017-09-21T07:08:34.650Z,82.63
2017-09-21T07:11:03.468Z,82.59
2017-09-21T07:13:32.217Z,82.61
2017-09-21T07:16:01.039Z,82.67
2017-09-21T07:18:33.001Z,82.59
2017-09-21T07:21:01.816Z,82.64
2017-09-21T07:23:30.597Z,82.61
2017-09-21T07:25:59.361Z,82.61
2017-09-21T07:28:28.134Z,82.55
2017-09-21T07:30:56.974Z,82.69
2017-09-21T07:33:25.622Z,82.74
2017-09-21T07:35:54.428Z,82.71
2017-09-21T07:38:23.178Z,82.71
2017-09-21T07:40:51.959Z,82.71
2017-09-21T07:43:20.721Z,82.83
2017-09-21T07:45:49.499Z,82.77
2017-09-21T07:48:18.269Z,82.76
2017-09-21T07:50:46.837Z,82.75
2017-09-21T07:53:15.642Z,82.78
2017-09-21T07:55:44.462Z,82.80
2017-09-21T07:58:13.157Z,82.78
2017-09-21T08:00:41.756Z,82.84
2017-09-21T08:03:10.470Z,82.84
2017-09-21T08:05:39.227Z,82.83
2017-09-21T08:08:08.037Z,82.89
2017-09-21T08:10:36.746Z,82.92
2017-09-21T08:13:05.521Z,83.00
2017-09-21T08:15:34.216Z,82.98
2017-09-21T08:18:02.926Z,83.06
2017-09-21T08:20:31.757Z,83.05
2017-09-21T08:23:00.524Z,83.06
2017-09-21T08:25:29.335Z,83.03
2017-09-21T08:27:58.090Z,83.00
2017-09-21T08:30:26.872Z,83.04
2017-09-21T08:32:55.645Z,83.01
2017-09-21T08:35:24.426Z,83.12
2017-09-21T08:37:53.176Z,83.07
2017-09-21T08:40:21.982Z,83.26
2017-09-21T08:42:50.702Z,83.27
2017-09-21T08:45:19.444Z,83.21
2017-09-21T08:47:48.242Z,83.41
2017-09-21T08:50:17.021Z,83.31
2017-09-21T08:52:45.754Z,83.24
2017-09-21T08:55:14.577Z,83.23
2017-09-21T08:57:43.306Z,83.20
2017-09-21T09:00:12.123Z,83.17
2017-09-21T09:02:40.900Z,83.06
2017-09-21T09:05:09.653Z,82.99
2017-09-21T09:07:38.404Z,82.98
2017-09-21T09:10:07.101Z,82.93
2017-09-21T09:12:39.135Z,83.05
2017-09-21T09:15:07.967Z,82.87
2017-09-21T09:17:36.732Z,82.89
2017-09-21T09:20:05.474Z,82.89
2017-09-21T09:22:34.222Z,82.85
2017-09-21T09:25:03.028Z,82.81
2017-09-21T09:27:31.765Z,82.82
2017-09-21T09:30:00.390Z,82.84
2017-09-21T09:32:29.221Z,82.85
2017-09-21T09:34:57.967Z,82.87
2017-09-21T09:37:26.760Z,82.85
2017-09-21T09:39:55.474Z,82.83
2017-09-21T09:42:24.175Z,82.81
2017-09-21T09:44:52.924Z,82.69
2017-09-21T09:47:21.613Z,82.65
2017-09-21T09:49:50.428Z,82.66
2017-09-21T09:52:19.173Z,82.60
2017-09-21T09:54:47.821Z,82.52
2017-09-21T09:57:16.586Z,82.55
2017-09-21T09:59:45.327Z,82.48
2017-09-21T10:02:14.068Z,82.46
2017-09-21T10:04:42.850Z,82.39
2017-09-21T10:07:11.558Z,82.36
2017-09-21T10:09:40.297Z,82.34
2017-09-21T10:12:09.098Z,82.27
2017-09-21T10:14:37.826Z,82.21
2017-09-21T10:17:06.616Z,82.19
2017-09-21T10:19:35.072Z,82.14
2017-09-21T10:22:03.710Z,82.09
2017-09-21T10:24:32.361Z,82.06
2017-09-21T10:27:01.113Z,82.01
2017-09-21T10:29:29.829Z,81.94
2017-09-21T10:31:58.557Z,81.94
2017-09-21T10:34:27.297Z,81.94
2017-09-21T10:36:56.137Z,81.90
2017-09-21T10:39:24.922Z,81.90
2017-09-21T10:41:53.659Z,81.76
2017-09-21T10:44:22.454Z,81.80
2017-09-21T10:46:51.195Z,81.63
2017-09-21T10:49:19.929Z,81.42
2017-09-21T10:51:48.739Z,81.32
2017-09-21T10:54:17.495Z,80.95
2017-09-21T10:56:46.309Z,81.17
2017-09-21T10:59:15.021Z,80.92
2017-09-21T11:01:43.704Z,80.92
2017-09-21T11:04:12.466Z,80.92
2017-09-21T11:06:41.199Z,81.10
2017-09-21T11:09:09.910Z,81.19
2017-09-21T11:11:38.687Z,80.82
2017-09-21T11:14:07.422Z,80.85
2017-09-21T11:16:36.228Z,81.03
2017-09-21T11:19:05.048Z,80.23
2017-09-21T11:21:33.764Z,80.60
2017-09-21T11:24:02.467Z,80.43
2017-09-21T11:26:31.167Z,80.58
2017-09-21T11:28:59.956Z,81.03
2017-09-21T11:31:28.744Z,80.93
2017-09-21T11:33:57.414Z,80.93
2017-09-21T11:36:26.206Z,80.98
2017-09-21T11:38:54.962Z,81.07
2017-09-21T11:41:23.663Z,80.62
2017-09-21T11:43:52.492Z,80.76
2017-09-21T11:46:21.226Z,80.87
2017-09-21T11:48:49.990Z,81.01
2017-09-21T11:51:18.606Z,80.59
2017-09-21T11:53:47.369Z,81.06
2017-09-21T11:56:16.001Z,80.70
2017-09-21T11:58:44.633Z,80.97
2017-09-21T12:01:13.420Z,80.87
2017-09-21T12:03:42.181Z,80.69
2017-09-21T12:06:10.923Z,81.02
2017-09-21T12:08:39.681Z,80.78
2017-09-21T12:11:08.416Z,80.31
2017-09-21T12:13:37.137Z,80.38
2017-09-21T12:16:05.826Z,80.38
2017-09-21T12:18:35.242Z,80.78
2017-09-21T12:21:04.032Z,80.51
2017-09-21T12:23:32.762Z,80.67
2017-09-21T12:26:01.522Z,80.55
2017-09-21T12:28:33.177Z,80.54
2017-09-21T12:31:01.822Z,80.25
2017-09-21T12:33:30.514Z,80.59
2017-09-21T12:35:59.251Z,79.54
2017-09-21T12:38:27.983Z,80.21
2017-09-21T12:40:56.823Z,79.85
2017-09-21T12:43:25.544Z,80.44
2017-09-21T12:45:54.267Z,79.69
2017-09-21T12:48:22.999Z,79.55
2017-09-21T12:50:51.824Z,79.72
2017-09-21T12:53:20.548Z,79.76
2017-09-21T12:55:49.344Z,79.52
2017-09-21T12:58:18.045Z,80.02
2017-09-21T13:00:46.751Z,80.11
2017-09-21T13:03:15.545Z,80.27
2017-09-21T13:05:44.233Z,79.88
2017-09-21T13:08:13.002Z,79.80
2017-09-21T13:10:41.704Z,79.36
2017-09-21T13:13:10.490Z,79.19
2017-09-21T13:15:39.290Z,79.38
2017-09-21T13:18:07.969Z,79.52
2017-09-21T13:20:36.670Z,78.53
2017-09-21T13:23:05.409Z,79.52
2017-09-21T13:25:34.147Z,78.83
2017-09-21T13:28:02.905Z,79.34
2017-09-21T13:30:31.695Z,79.33
2017-09-21T13:33:00.233Z,78.77
2017-09-21T13:35:28.966Z,78.81
2017-09-21T13:37:57.673Z,78.35
2017-09-21T13:40:26.381Z,77.92
2017-09-21T13:42:55.209Z,79.14
2017-09-21T13:45:23.929Z,78.53
2017-09-21T13:47:52.724Z,78.88
2017-09-21T13:50:21.470Z,78.03
2017-09-21T13:52:50.199Z,78.28
2017-09-21T13:55:19.042Z,78.61
2017-09-21T13:57:47.807Z,78.67
2017-09-21T14:00:16.546Z,78.45
2017-09-21T14:02:45.285Z,78.39
2017-09-21T14:05:14.018Z,78.90
2017-09-21T14:07:42.762Z,78.54
2017-09-21T14:10:11.457Z,78.16
2017-09-21T14:12:40.134Z,78.58
2017-09-21T14:15:08.890Z,78.37
2017-09-21T14:17:37.580Z,78.42
2017-09-21T14:20:06.319Z,78.34
2017-09-21T14:22:35.017Z,77.83
2017-09-21T14:25:03.782Z,78.60
2017-09-21T14:27:32.531Z,77.78
2017-09-21T14:30:01.193Z,78.13
2017-09-21T14:32:29.997Z,77.96
2017-09-21T14:34:58.760Z,77.61
2017-09-21T14:37:27.487Z,78.13
2017-09-21T14:39:56.209Z,77.25
2017-09-21T14:42:24.920Z,77.76
2017-09-21T14:44:53.737Z,77.34
2017-09-21T14:47:22.429Z,77.64
2017-09-21T14:49:51.070Z,76.81
2017-09-21T14:52:19.838Z,77.79
2017-09-21T14:54:48.569Z,77.54
2017-09-21T14:57:17.266Z,77.34
2017-09-21T14:59:46.028Z,78.08
2017-09-21T15:02:14.777Z,77.84
2017-09-21T15:04:43.500Z,77.27
2017-09-21T15:07:12.249Z,76.94
2017-09-21T15:09:41.004Z,78.08
2017-09-21T15:12:09.828Z,72.46
2017-09-21T15:14:47.512Z,71.61
2017-09-21T15:17:18.790Z,72.61
2017-09-21T15:19:49.057Z,72.43
2017-09-21T15:22:20.126Z,73.10
2017-09-21T15:24:51.386Z,73.66
2017-09-21T15:27:27.716Z,71.48
2017-09-21T15:29:59.572Z,73.30
2017-09-21T15:32:30.636Z,74.38
2017-09-21T15:34:59.341Z,75.68
2017-09-21T15:37:28.058Z,76.12
2017-09-21T15:39:56.888Z,76.30
2017-09-21T15:42:34.003Z,76.43
2017-09-21T15:45:09.111Z,76.57
2017-09-21T15:47:46.099Z,76.58
2017-09-21T15:50:24.465Z,76.73
2017-09-21T15:52:55.401Z,76.76
2017-09-21T15:55:28.401Z,76.43
2017-09-21T15:58:09.312Z,76.53
2017-09-21T16:00:50.038Z,76.76
2017-09-21T16:03:26.933Z,76.64
2017-09-21T16:06:04.296Z,76.61
2017-09-21T16:08:40.911Z,76.68
2017-09-21T16:11:19.334Z,76.63
2017-09-21T16:13:55.292Z,76.56
2017-09-21T16:16:33.838Z,76.49
2017-09-21T16:19:02.668Z,76.69
2017-09-21T16:21:31.493Z,76.54
2017-09-21T16:24:00.239Z,76.63
2017-09-21T16:26:29.016Z,76.63
2017-09-21T16:29:00.563Z,76.84
2017-09-21T16:31:29.316Z,76.90
2017-09-21T16:33:58.336Z,77.02
2017-09-21T16:36:26.964Z,77.16
2017-09-21T16:38:55.558Z,77.25
2017-09-21T16:41:24.180Z,77.32
2017-09-21T16:43:52.808Z,77.29
2017-09-21T16:46:21.410Z,77.37
2017-09-21T16:48:50.235Z,77.48
2017-09-21T16:51:19.034Z,77.47
2017-09-21T16:53:47.762Z,77.53
2017-09-21T16:56:16.391Z,77.63
2017-09-21T16:58:44.952Z,77.70
2017-09-21T17:01:13.762Z,77.68
2017-09-21T17:03:42.478Z,77.70
2017-09-21T17:06:11.276Z,77.84
2017-09-21T17:08:40.022Z,77.99
2017-09-21T17:11:08.794Z,78.00
2017-09-21T17:13:37.568Z,78.11
2017-09-21T17:16:06.262Z,78.08
2017-09-21T17:18:37.302Z,78.15
2017-09-21T17:21:06.131Z,78.18
2017-09-21T17:23:34.795Z,78.25
2017-09-21T17:26:03.561Z,78.33
2017-09-21T17:28:37.049Z,78.35
2017-09-21T17:31:05.841Z,78.46
2017-09-21T17:33:34.596Z,78.51
2017-09-21T17:36:03.389Z,78.63
2017-09-21T17:38:34.703Z,78.74
2017-09-21T17:41:03.634Z,78.82
2017-09-21T17:43:32.373Z,78.89
2017-09-21T17:46:01.153Z,78.88
2017-09-21T17:48:29.861Z,78.87
2017-09-21T17:50:58.597Z,78.93
2017-09-21T17:53:27.346Z,78.95
2017-09-21T17:55:56.089Z,79.05
2017-09-21T17:58:24.890Z,79.03
2017-09-21T18:00:53.672Z,79.25
2017-09-21T18:03:22.451Z,79.24
2017-09-21T18:05:51.254Z,79.28
2017-09-21T18:08:20.001Z,79.36
2017-09-21T18:10:48.847Z,79.43
2017-09-21T18:13:17.642Z,79.46
2017-09-21T18:15:46.368Z,79.52
2017-09-21T18:18:15.155Z,79.65
2017-09-21T18:20:44.015Z,79.62
2017-09-21T18:23:12.793Z,79.59
2017-09-21T18:25:41.628Z,79.64
2017-09-21T18:28:10.392Z,79.65
2017-09-21T18:30:39.176Z,79.69
2017-09-21T18:33:07.691Z,79.70
2017-09-21T18:35:36.280Z,79.60
2017-09-21T18:38:05.184Z,79.48
2017-09-21T18:40:33.842Z,79.47
2017-09-21T18:43:02.738Z,79.40
2017-09-21T18:45:31.585Z,79.29
2017-09-21T18:48:00.456Z,79.25
2017-09-21T18:50:30.061Z,79.12
2017-09-21T18:52:59.413Z,79.01
2017-09-21T18:55:28.160Z,78.85
2017-09-21T18:57:57.004Z,78.77
2017-09-21T19:00:25.813Z,78.63
2017-09-21T19:02:54.577Z,78.52
2017-09-21T19:05:23.340Z,78.33
2017-09-21T19:07:52.057Z,78.25
2017-09-21T19:10:20.751Z,78.21
2017-09-21T19:12:49.540Z,78.17
2017-09-21T19:15:18.313Z,78.12
2017-09-21T19:17:48.212Z,78.14
2017-09-21T19:20:17.013Z,78.14
2017-09-21T19:22:45.835Z,78.11
2017-09-21T19:25:14.648Z,78.14
2017-09-21T19:27:43.436Z,78.19
2017-09-21T19:30:12.249Z,78.18
2017-09-21T19:32:41.106Z,78.21
2017-09-21T19:35:09.840Z,78.19
2017-09-21T19:37:38.627Z,78.19
2017-09-21T19:40:07.449Z,78.22
2017-09-21T19:42:36.320Z,78.26
2017-09-21T19:45:05.051Z,78.28
2017-09-21T19:47:33.886Z,78.40
2017-09-21T19:50:02.612Z,78.44
2017-09-21T19:52:31.349Z,78.44
2017-09-21T19:55:00.078Z,78.49
2017-09-21T19:57:28.806Z,78.49
2017-09-21T19:59:57.564Z,78.51
2017-09-21T20:02:26.299Z,78.52
2017-09-21T20:04:55.083Z,78.49
2017-09-21T20:07:23.893Z,78.44
2017-09-21T20:09:52.682Z,78.42
2017-09-21T20:12:21.416Z,78.43
2017-09-21T20:14:50.159Z,78.41
2017-09-21T20:17:18.844Z,78.44
2017-09-21T20:19:47.589Z,78.43
2017-09-21T20:22:16.370Z,78.46
2017-09-21T20:24:45.155Z,78.45
2017-09-21T20:27:13.895Z,78.46
2017-09-21T20:29:42.712Z,78.47
2017-09-21T20:32:11.450Z,78.48
2017-09-21T20:34:40.239Z,78.47
2017-09-21T20:37:08.941Z,78.51
2017-09-21T20:39:37.734Z,78.56
2017-09-21T20:42:06.514Z,78.57
2017-09-21T20:44:35.260Z,78.58
2017-09-21T20:47:04.020Z,78.60
2017-09-21T20:49:32.795Z,78.63
2017-09-21T20:52:01.535Z,78.67
2017-09-21T20:54:30.322Z,78.69
2017-09-21T20:56:59.114Z,78.70
2017-09-21T20:59:27.851Z,78.74
2017-09-21T21:01:56.625Z,78.75
2017-09-21T21:04:25.517Z,78.77
2017-09-21T21:06:54.299Z,78.82
2017-09-21T21:09:23.133Z,78.86
2017-09-21T21:11:51.863Z,78.87
2017-09-21T21:14:20.709Z,78.91
2017-09-21T21:16:49.472Z,78.94
2017-09-21T21:19:18.280Z,78.98
2017-09-21T21:21:47.007Z,79.00
2017-09-21T21:24:15.782Z,79.05
2017-09-21T21:26:44.540Z,79.10
2017-09-21T21:29:13.326Z,79.12
2017-09-21T21:31:42.787Z,79.15
2017-09-21T21:34:11.717Z,79.18
2017-09-21T21:36:40.505Z,79.19
2017-09-21T21:39:09.125Z,79.21
2017-09-21T21:41:37.727Z,79.26
2017-09-21T21:44:07.469Z,79.30
2017-09-21T21:46:36.259Z,79.30
2017-09-21T21:49:05.021Z,79.33
2017-09-21T21:51:33.781Z,79.36
2017-09-21T21:54:02.497Z,79.39
2017-09-21T21:56:31.243Z,79.40
2017-09-21T21:59:00.021Z,79.41
2017-09-21T22:01:28.873Z,79.48
2017-09-21T22:04:02.239Z,79.55
2017-09-21T22:06:35.888Z,79.51
2017-09-21T22:09:06.782Z,79.53
2017-09-21T22:11:38.452Z,79.54
2017-09-21T22:14:10.840Z,79.61
2017-09-21T22:16:42.261Z,79.57
2017-09-21T22:19:16.293Z,79.63
2017-09-21T22:21:48.669Z,79.65
2017-09-21T22:24:19.464Z,79.69
2017-09-21T22:26:49.932Z,79.75
2017-09-21T22:29:21.043Z,79.72
2017-09-21T22:31:51.035Z,79.77
2017-09-21T22:34:19.628Z,79.77
2017-09-21T22:36:48.475Z,79.82
2017-09-21T22:39:17.201Z,79.82
2017-09-21T22:41:45.980Z,79.85
2017-09-21T22:44:14.737Z,79.89
2017-09-21T22:46:43.565Z,79.92
2017-09-21T22:49:12.275Z,79.97
2017-09-21T22:51:41.416Z,79.94
2017-09-21T22:54:10.170Z,79.97
2017-09-21T22:56:38.931Z,80.02
2017-09-21T22:59:07.617Z,80.03
2017-09-21T23:01:36.418Z,80.04
2017-09-21T23:04:05.230Z,80.08
2017-09-21T23:06:34.010Z,80.12
2017-09-21T23:09:02.632Z,80.11
2017-09-21T23:11:31.388Z,80.16
2017-09-21T23:14:00.209Z,80.15
2017-09-21T23:16:28.959Z,80.17
2017-09-21T23:18:57.700Z,80.15
2017-09-21T23:21:26.463Z,80.17
2017-09-21T23:23:55.140Z,80.18
2017-09-21T23:26:23.868Z,80.20
2017-09-21T23:28:52.677Z,80.32
2017-09-21T23:31:21.377Z,80.24
2017-09-21T23:33:50.173Z,80.22
2017-09-21T23:36:18.928Z,80.28
2017-09-21T23:38:47.682Z,80.24
2017-09-21T23:41:16.470Z,80.23
2017-09-21T23:43:45.204Z,80.28
2017-09-21T23:46:13.990Z,80.28
2017-09-21T23:48:42.786Z,80.26
2017-09-21T23:51:11.512Z,80.26
2017-09-21T23:53:40.217Z,80.27
2017-09-21T23:56:08.963Z,80.27
2017-09-21T23:58:40.361Z,80.29
